Time;durP1;ratioP1;P1;durP2;ratioP2;P2;SDS_P1;SDS_P2;PMS_P1;PMS_P2;Temp;Humidity;BMP_temperature;BMP_pressure;BME280_temperature;BME280_humidity;BME280_pressure;Samples;Min_cycle;Max_cycle;Signal;HPM_P1;HPM_P2
2024/03/18 00:02:15;;;;;;;5.90;4.18;;;;;;;10.89;46.44;101238.56;4910980;29;20043;-70
2024/03/18 00:04:42;;;;;;;6.82;4.45;;;;;;;10.86;46.21;101236.06;4923808;29;20043;-69
2024/03/18 00:07:09;;;;;;;7.35;4.43;;;;;;;10.81;46.42;101230.97;4922279;29;20043;-70
2024/03/18 00:09:37;;;;;;;5.55;3.63;;;;;;;10.80;46.36;101242.06;4924664;29;20047;-69
2024/03/18 00:12:04;;;;;;;6.90;4.35;;;;;;;10.75;47.05;101236.94;4933240;29;20051;-70
2024/03/18 00:14:32;;;;;;;6.60;4.05;;;;;;;10.75;46.93;101236.94;4926593;29;20040;-69
2024/03/18 00:16:59;;;;;;;6.80;4.28;;;;;;;10.72;47.20;101230.88;4908072;29;20511;-69
2024/03/18 00:19:26;;;;;;;7.28;4.60;;;;;;;10.70;47.39;101232.88;4915046;29;20052;-69
2024/03/18 00:21:53;;;;;;;7.13;4.82;;;;;;;10.65;47.46;101230.50;4927778;29;20043;-70
2024/03/18 00:24:20;;;;;;;6.93;4.82;;;;;;;10.65;47.20;101226.91;4913510;29;20047;-70
2024/03/18 00:26:47;;;;;;;7.30;4.40;;;;;;;10.64;47.83;101228.78;4924572;29;20054;-69
2024/03/18 00:29:14;;;;;;;7.38;4.57;;;;;;;10.63;47.49;101224.28;4927744;29;20558;-69
2024/03/18 00:31:44;;;;;;;8.07;5.00;;;;;;;10.64;48.00;101222.44;4914893;29;20071;-70
2024/03/18 00:34:11;;;;;;;6.95;5.00;;;;;;;10.60;47.89;101213.59;4932478;29;20415;-68
2024/03/18 00:36:38;;;;;;;7.28;5.10;;;;;;;10.59;47.98;101220.06;4933307;29;20495;-69
2024/03/18 00:39:06;;;;;;;6.90;4.68;;;;;;;10.56;48.16;101218.47;4932691;29;20050;-70
2024/03/18 00:41:45;;;;;;;7.75;5.30;;;;;;;10.56;48.31;101223.06;4922737;29;20066;-69
2024/03/18 00:44:15;;;;;;;6.78;4.97;;;;;;;10.56;48.46;101223.06;4922504;29;20055;-69
2024/03/18 00:46:44;;;;;;;8.23;4.60;;;;;;;10.55;48.51;101222.19;4913543;29;20053;-70
2024/03/18 00:49:11;;;;;;;7.32;5.05;;;;;;;10.54;48.19;101214.09;4918991;29;20094;-70
2024/03/18 00:51:38;;;;;;;8.10;4.90;;;;;;;10.54;48.45;101223.19;4923694;29;20047;-69
2024/03/18 00:54:07;;;;;;;7.00;4.63;;;;;;;10.55;48.51;101218.56;4929173;29;20043;-70
2024/03/18 00:56:35;;;;;;;7.38;4.80;;;;;;;10.53;48.36;101218.69;4927026;29;20039;-70
2024/03/18 00:59:02;;;;;;;7.25;4.63;;;;;;;10.52;48.17;101208.72;4930990;29;20507;-69
2024/03/18 01:01:29;;;;;;;6.45;4.55;;;;;;;10.52;48.39;101210.56;4927675;29;20050;-70
2024/03/18 01:03:57;;;;;;;6.47;4.53;;;;;;;10.52;48.89;101200.50;4907637;29;20056;-69
2024/03/18 01:06:25;;;;;;;7.95;5.53;;;;;;;10.50;48.77;101210.69;4925001;29;20032;-69
2024/03/18 01:08:52;;;;;;;6.95;4.57;;;;;;;10.50;48.88;101201.59;4927405;29;20496;-70
2024/03/18 01:11:20;;;;;;;6.95;4.80;;;;;;;10.49;48.75;101200.75;4928496;29;20039;-70
2024/03/18 01:13:47;;;;;;;6.18;4.10;;;;;;;10.49;49.01;101200.75;4923311;29;20055;-69
2024/03/18 01:16:14;;;;;;;6.60;4.60;;;;;;;10.48;48.96;101198.16;4932126;29;20094;-70
2024/03/18 01:18:42;;;;;;;7.68;4.85;;;;;;;10.46;48.70;101200.13;4923344;29;20035;-69
2024/03/18 01:21:11;;;;;;;6.45;4.72;;;;;;;10.46;49.52;101201.00;4927045;29;20062;-70
2024/03/18 01:23:38;;;;;;;7.00;4.72;;;;;;;10.43;49.05;101203.13;4926288;29;20098;-69
2024/03/18 01:26:07;;;;;;;7.03;4.85;;;;;;;10.41;48.89;101196.88;4925846;29;20044;-70
2024/03/18 01:28:34;;;;;;;6.68;4.75;;;;;;;10.41;48.74;101194.16;4922772;29;20048;-69
2024/03/18 01:31:03;;;;;;;6.80;4.78;;;;;;;10.40;49.17;101192.44;4921313;29;20050;-70
2024/03/18 01:33:31;;;;;;;7.00;4.95;;;;;;;10.37;48.92;101185.34;4910184;29;20051;-69
2024/03/18 01:35:57;;;;;;;8.75;4.68;;;;;;;10.35;49.16;101181.84;4927667;29;20039;-69
2024/03/18 01:38:25;;;;;;;7.57;4.88;;;;;;;10.36;49.43;101194.53;4921671;29;20067;-68
2024/03/18 01:40:52;;;;;;;6.78;4.88;;;;;;;10.32;49.54;101179.34;4918904;29;20039;-70
2024/03/18 01:43:20;;;;;;;6.82;4.45;;;;;;;10.32;49.25;101184.00;4932768;29;20035;-70
2024/03/18 01:45:47;;;;;;;8.60;5.20;;;;;;;10.30;49.63;101177.75;4931258;29;20039;-70
2024/03/18 01:48:14;;;;;;;6.32;4.65;;;;;;;10.28;49.80;101179.75;4930983;29;20090;-69
2024/03/18 01:50:42;;;;;;;7.97;4.88;;;;;;;10.27;49.73;101178.00;4915159;29;20043;-70
2024/03/18 01:53:11;;;;;;;6.82;4.68;;;;;;;10.27;49.83;101176.13;4931417;29;20035;-70
2024/03/18 01:55:39;;;;;;;7.72;4.68;;;;;;;10.26;49.98;101171.66;4921288;29;20039;-70
2024/03/18 01:58:07;;;;;;;6.97;4.57;;;;;;;10.24;49.64;101163.56;4916960;29;20039;-70
2024/03/18 02:00:35;;;;;;;5.78;4.20;;;;;;;10.23;50.08;101167.28;4925594;29;20047;-70
2024/03/18 02:03:03;;;;;;;7.13;4.47;;;;;;;10.24;50.04;101165.44;4924474;29;20521;-70
2024/03/18 02:05:31;;;;;;;6.18;3.92;;;;;;;10.22;50.03;101165.59;4930548;29;20495;-70
2024/03/18 02:07:58;;;;;;;7.47;4.55;;;;;;;10.22;49.83;101156.50;4909299;29;20043;-69
2024/03/18 02:10:26;;;;;;;7.45;4.45;;;;;;;10.22;49.94;101159.25;4927477;29;20047;-69
2024/03/18 02:12:58;;;;;;;7.03;4.22;;;;;;;10.23;51.18;101153.63;4911217;29;20047;-71
2024/03/18 02:15:26;;;;;;;6.45;3.92;;;;;;;10.19;50.23;101156.75;4918997;29;20494;-69
2024/03/18 02:17:53;;;;;;;6.75;4.68;;;;;;;10.19;50.39;101149.41;4923662;29;20455;-69
2024/03/18 02:20:20;;;;;;;6.13;4.57;;;;;;;10.19;49.95;101143.94;4929704;29;20384;-70
2024/03/18 02:22:49;;;;;;;7.63;4.50;;;;;;;10.20;50.29;101145.69;4924462;29;20415;-69
2024/03/18 02:25:16;;;;;;;6.38;4.32;;;;;;;10.18;50.36;101142.19;4910552;29;20050;-70
2024/03/18 02:27:44;;;;;;;6.13;4.07;;;;;;;10.19;50.60;101143.94;4925998;29;20047;-70
2024/03/18 02:30:12;;;;;;;6.28;4.38;;;;;;;10.20;50.11;101139.34;4934150;29;20102;-70
2024/03/18 02:32:41;;;;;;;6.68;4.63;;;;;;;10.17;50.47;101140.44;4924780;29;20039;-70
2024/03/18 02:35:11;;;;;;;7.18;4.63;;;;;;;10.17;50.54;101137.72;4927991;29;20043;-70
2024/03/18 02:37:38;;;;;;;5.40;3.95;;;;;;;10.17;50.28;101136.84;4926390;29;20049;-70
2024/03/18 02:40:08;;;;;;;6.68;4.20;;;;;;;10.19;50.66;101140.34;4929636;29;20047;-69
2024/03/18 02:42:36;;;;;;;5.93;3.90;;;;;;;10.15;50.98;101126.03;4922629;29;20060;-68
2024/03/18 02:45:04;;;;;;;6.93;4.35;;;;;;;10.16;50.41;101127.75;4924665;29;20035;-69
2024/03/18 02:47:31;;;;;;;6.38;4.22;;;;;;;10.16;51.01;101121.41;4932057;29;20035;-70
2024/03/18 02:49:58;;;;;;;7.18;4.10;;;;;;;10.15;50.89;101116.97;4913718;29;20136;-69
2024/03/18 02:52:25;;;;;;;6.93;4.40;;;;;;;10.15;50.95;101125.19;4920202;29;20050;-69
2024/03/18 02:54:52;;;;;;;6.97;3.95;;;;;;;10.14;50.67;101113.38;4929674;29;20040;-70
2024/03/18 02:57:20;;;;;;;6.40;4.35;;;;;;;10.16;51.02;101115.94;4920165;29;20511;-69
2024/03/18 02:59:47;;;;;;;6.88;4.18;;;;;;;10.15;51.25;101109.59;4927045;29;20197;-69
2024/03/18 03:02:14;;;;;;;6.20;4.28;;;;;;;10.16;51.17;101105.88;4927222;29;20491;-69
2024/03/18 03:04:41;;;;;;;7.28;4.78;;;;;;;10.15;50.94;101114.25;4926023;29;20059;-69
2024/03/18 03:07:09;;;;;;;5.95;4.20;;;;;;;10.15;51.03;101111.50;4924610;29;20043;-69
2024/03/18 03:09:36;;;;;;;6.38;4.32;;;;;;;10.16;51.29;101114.09;4928884;29;20051;-69
2024/03/18 03:12:03;;;;;;;6.53;4.72;;;;;;;10.15;51.32;101115.09;4926739;29;20209;-69
2024/03/18 03:14:31;;;;;;;6.82;4.10;;;;;;;10.15;50.96;101104.13;4919927;29;20042;-69
2024/03/18 03:16:58;;;;;;;6.78;4.15;;;;;;;10.14;50.98;101107.91;4928754;28;20055;-69
2024/03/18 03:19:26;;;;;;;6.82;4.60;;;;;;;10.14;51.13;101107.91;4921661;29;20047;-69
2024/03/18 03:21:54;;;;;;;6.40;4.35;;;;;;;10.14;51.39;101110.63;4931923;29;20048;-69
2024/03/18 03:24:20;;;;;;;7.10;4.68;;;;;;;10.15;51.49;101100.56;4923172;29;20036;-69
2024/03/18 03:26:47;;;;;;;5.82;3.97;;;;;;;10.15;51.51;101097.84;4928730;28;20047;-69
2024/03/18 03:29:14;;;;;;;7.05;4.70;;;;;;;10.16;51.69;101094.06;4924819;29;20070;-69
2024/03/18 03:31:43;;;;;;;7.53;4.53;;;;;;;10.18;51.41;101098.44;4915718;29;20054;-70
2024/03/18 03:34:10;;;;;;;6.93;4.45;;;;;;;10.17;51.76;101093.94;4921056;29;20040;-70
2024/03/18 03:36:40;;;;;;;6.60;4.60;;;;;;;10.17;51.65;101098.56;4916882;29;20070;-69
2024/03/18 03:39:08;;;;;;;5.28;3.80;;;;;;;10.18;51.90;101097.56;4907653;29;20103;-68
2024/03/18 03:41:35;;;;;;;5.88;4.03;;;;;;;10.17;51.63;101099.41;4927033;29;20035;-69
2024/03/18 03:44:02;;;;;;;6.63;4.20;;;;;;;10.18;51.85;101097.56;4922111;29;20043;-70
2024/03/18 03:46:29;;;;;;;6.80;4.63;;;;;;;10.19;51.26;101096.56;4917175;29;20043;-69
2024/03/18 03:48:57;;;;;;;7.55;4.60;;;;;;;10.20;51.94;101095.56;4921557;29;20048;-70
2024/03/18 03:51:24;;;;;;;7.45;4.78;;;;;;;10.18;51.30;101092.97;4923533;29;20050;-69
2024/03/18 03:53:51;;;;;;;7.25;4.43;;;;;;;10.19;51.41;101088.38;4923710;29;20039;-70
2024/03/18 03:56:18;;;;;;;7.15;4.90;;;;;;;10.19;51.68;101094.72;4910052;29;20043;-70
2024/03/18 03:58:50;;;;;;;7.35;4.45;;;;;;;10.22;51.87;101088.13;4922332;29;20443;-69
2024/03/18 04:01:17;;;;;;;7.32;4.57;;;;;;;10.18;51.55;101092.09;4930172;29;20110;-69
2024/03/18 04:03:44;;;;;;;7.32;4.63;;;;;;;10.21;51.89;101089.13;4917391;29;20035;-70
2024/03/18 04:06:12;;;;;;;7.15;4.72;;;;;;;10.23;51.80;101095.34;4923874;29;20055;-69
2024/03/18 04:08:39;;;;;;;7.65;4.65;;;;;;;10.20;51.70;101093.72;4930168;29;20050;-70
2024/03/18 04:11:07;;;;;;;7.47;4.72;;;;;;;10.21;52.01;101095.47;4922968;29;20267;-70
2024/03/18 04:13:34;;;;;;;6.88;4.55;;;;;;;10.21;52.20;101095.47;4922992;29;20411;-70
2024/03/18 04:16:01;;;;;;;6.68;4.22;;;;;;;10.22;51.74;101090.84;4926504;29;20047;-70
2024/03/18 04:18:29;;;;;;;6.47;4.38;;;;;;;10.23;52.17;101098.06;4904886;29;20099;-69
2024/03/18 04:20:59;;;;;;;7.00;4.57;;;;;;;10.24;52.17;101102.50;4926518;29;20051;-69
2024/03/18 04:23:29;;;;;;;6.85;4.35;;;;;;;10.27;52.24;101102.28;4924393;29;20400;-69
2024/03/18 04:25:57;;;;;;;6.88;4.50;;;;;;;10.24;52.19;101095.19;4913956;29;20054;-70
2024/03/18 04:28:24;;;;;;;7.03;4.45;;;;;;;10.26;52.40;101095.06;4927870;29;20058;-69
2024/03/18 04:30:51;;;;;;;6.85;4.60;;;;;;;10.26;52.06;101095.06;4926122;29;20047;-70
2024/03/18 04:33:17;;;;;;;8.43;5.25;;;;;;;10.27;52.14;101101.41;4913369;29;20058;-70
2024/03/18 04:35:45;;;;;;;8.85;5.38;;;;;;;10.24;52.07;101097.91;4924783;29;20411;-69
2024/03/18 04:38:12;;;;;;;8.20;5.05;;;;;;;10.27;52.32;101091.34;4931408;29;20094;-70
2024/03/18 04:40:41;;;;;;;8.00;5.65;;;;;;;10.28;52.32;101082.13;4926928;29;20345;-70
2024/03/18 04:43:07;;;;;;;7.22;5.18;;;;;;;10.26;52.29;101081.38;4928771;29;20054;-70
2024/03/18 04:45:34;;;;;;;7.43;4.95;;;;;;;10.27;52.00;101083.13;4923782;29;20102;-70
2024/03/18 04:48:02;;;;;;;7.95;5.35;;;;;;;10.28;51.98;101084.00;4917731;29;20047;-70
2024/03/18 04:50:29;;;;;;;7.35;5.05;;;;;;;10.28;52.20;101084.00;4928320;29;20040;-70
2024/03/18 04:52:56;;;;;;;7.55;5.13;;;;;;;10.27;51.91;101085.88;4924826;29;20443;-69
2024/03/18 04:55:23;;;;;;;7.65;5.43;;;;;;;10.28;52.51;101087.59;4911550;29;20047;-69
2024/03/18 04:57:55;;;;;;;8.20;5.20;;;;;;;10.31;53.31;101086.50;4934880;28;20034;-70
2024/03/18 05:00:24;;;;;;;6.38;4.70;;;;;;;10.28;52.14;101084.00;4920933;29;20043;-69
2024/03/18 05:02:52;;;;;;;7.82;5.10;;;;;;;10.29;52.52;101086.63;4938736;29;20050;-69
2024/03/18 05:05:19;;;;;;;7.65;5.30;;;;;;;10.29;52.55;101085.75;4930595;29;20039;-69
2024/03/18 05:07:46;;;;;;;8.10;5.35;;;;;;;10.31;52.24;101081.03;4909617;29;20036;-69
2024/03/18 05:10:16;;;;;;;9.07;5.82;;;;;;;10.30;52.22;101082.88;4928968;29;20039;-69
2024/03/18 05:12:42;;;;;;;8.38;5.43;;;;;;;10.31;52.17;101089.22;4921033;29;20043;-71
2024/03/18 05:15:11;;;;;;;9.43;5.45;;;;;;;10.32;52.73;101083.59;4906774;29;20534;-69
2024/03/18 05:17:38;;;;;;;9.63;5.88;;;;;;;10.32;52.65;101085.50;4924543;29;20055;-69
2024/03/18 05:20:10;;;;;;;8.35;5.57;;;;;;;10.31;52.30;101073.69;4927594;29;20407;-69
2024/03/18 05:22:36;;;;;;;8.60;5.83;;;;;;;10.29;52.46;101092.09;4929163;29;20043;-69
2024/03/18 05:25:06;;;;;;;8.95;5.57;;;;;;;10.31;52.54;101086.50;4932360;29;20299;-70
2024/03/18 05:27:33;;;;;;;9.18;5.60;;;;;;;10.31;52.39;101090.09;4925870;29;20137;-70
2024/03/18 05:30:00;;;;;;;9.23;5.50;;;;;;;10.31;52.21;101089.22;4932360;29;20046;-69
2024/03/18 05:32:28;;;;;;;8.35;5.57;;;;;;;10.33;53.00;101089.94;4923535;29;20237;-70
2024/03/18 05:34:57;;;;;;;8.23;5.43;;;;;;;10.31;52.49;101094.69;4931409;29;20050;-70
2024/03/18 05:37:25;;;;;;;7.95;5.40;;;;;;;10.31;52.73;101086.50;4921717;29;20036;-70
2024/03/18 05:39:52;;;;;;;8.23;5.47;;;;;;;10.31;52.96;101087.38;4934772;29;20051;-69
2024/03/18 05:42:19;;;;;;;7.50;5.45;;;;;;;10.34;52.75;101088.94;4918032;29;20043;-69
2024/03/18 05:44:46;;;;;;;9.35;5.50;;;;;;;10.34;52.84;101094.44;4929076;29;20043;-69
2024/03/18 05:47:13;;;;;;;7.65;5.15;;;;;;;10.34;52.94;101094.44;4921796;29;20039;-69
2024/03/18 05:49:42;;;;;;;7.70;5.60;;;;;;;10.35;52.91;101094.31;4931427;29;20568;-70
2024/03/18 05:52:09;;;;;;;8.13;5.38;;;;;;;10.35;52.74;101104.38;4917899;29;20530;-69
2024/03/18 05:54:36;;;;;;;10.15;6.00;;;;;;;10.35;53.02;101098.91;4911811;29;20466;-70
2024/03/18 05:57:03;;;;;;;8.30;5.28;;;;;;;10.36;52.75;101107.00;4922775;29;20431;-69
2024/03/18 05:59:31;;;;;;;8.13;5.35;;;;;;;10.38;53.00;101106.88;4932080;29;20059;-70
2024/03/18 06:01:58;;;;;;;8.70;5.10;;;;;;;10.38;52.37;101104.13;4931685;29;20119;-70
2024/03/18 06:04:24;;;;;;;7.80;5.10;;;;;;;10.38;52.84;101106.88;4931218;29;20048;-69
2024/03/18 06:06:53;;;;;;;9.27;5.68;;;;;;;10.40;52.97;101107.63;4925720;28;20423;-69
2024/03/18 06:09:20;;;;;;;8.07;5.40;;;;;;;10.39;53.07;101106.75;4927199;29;20047;-69
2024/03/18 06:11:47;;;;;;;9.02;5.18;;;;;;;10.40;52.50;101113.94;4924752;29;20044;-69
2024/03/18 06:14:14;;;;;;;7.57;5.05;;;;;;;10.41;52.97;101123.00;4929879;29;20075;-69
2024/03/18 06:16:41;;;;;;;8.02;5.60;;;;;;;10.41;52.63;101117.53;4927776;29;20044;-69
2024/03/18 06:19:09;;;;;;;8.45;5.40;;;;;;;10.42;52.52;101113.81;4932556;29;20035;-68
2024/03/18 06:21:42;;;;;;;7.95;4.93;;;;;;;10.43;53.09;101119.16;4928326;29;20043;-70
2024/03/18 06:24:19;;;;;;;7.65;4.82;;;;;;;10.42;52.92;101125.63;4926927;29;20534;-69
2024/03/18 06:26:45;;;;;;;8.68;5.25;;;;;;;10.43;53.01;101119.16;4933005;28;20040;-69
2024/03/18 06:29:12;;;;;;;8.20;5.82;;;;;;;10.44;52.81;101118.16;4909645;29;20049;-69
2024/03/18 06:31:39;;;;;;;7.75;5.22;;;;;;;10.45;52.74;101124.50;4932652;29;20039;-73
2024/03/18 06:34:07;;;;;;;7.47;5.10;;;;;;;10.47;53.23;101117.06;4927482;29;20099;-70
2024/03/18 06:36:35;;;;;;;9.18;5.65;;;;;;;10.48;52.72;101124.28;4933265;29;20047;-71
2024/03/18 06:39:03;;;;;;;7.85;5.43;;;;;;;10.47;52.72;101117.94;4928154;29;20114;-71
2024/03/18 06:41:36;;;;;;;7.57;5.43;;;;;;;10.50;53.68;101119.50;4934113;29;20522;-70
2024/03/18 06:44:02;;;;;;;;;;;;;;;10.22;54.27;101118.22;4924724;29;20546;-70
2024/03/18 06:46:29;;;;;;;8.73;4.75;;;;;;;10.44;52.56;101122.78;4932458;29;19929;-70
2024/03/18 06:48:56;;;;;;;7.90;5.28;;;;;;;10.48;53.05;101124.28;4930826;29;20040;-70
2024/03/18 06:51:23;;;;;;;8.75;5.55;;;;;;;10.49;52.52;101123.25;4932093;29;20047;-70
2024/03/18 06:53:50;;;;;;;7.70;5.50;;;;;;;10.49;52.70;101134.19;4932358;29;20499;-70
2024/03/18 06:56:17;;;;;;;8.60;5.53;;;;;;;10.49;52.87;101132.31;4932916;29;20400;-70
2024/03/18 06:58:47;;;;;;;8.60;5.97;;;;;;;10.51;53.23;101124.00;4931998;29;20047;-71
2024/03/18 07:01:14;;;;;;;7.72;5.47;;;;;;;10.50;53.01;101138.66;4930602;29;20058;-70
2024/03/18 07:03:41;;;;;;;8.88;5.22;;;;;;;10.50;53.45;101136.81;4910489;29;20411;-70
2024/03/18 07:06:08;;;;;;;9.13;5.50;;;;;;;10.54;53.02;101145.69;4933284;29;20048;-71
2024/03/18 07:08:35;;;;;;;10.52;6.47;;;;;;;10.54;53.04;101140.22;4931293;29;20484;-71
2024/03/18 07:11:02;;;;;;;9.73;5.80;;;;;;;10.54;52.91;101140.22;4932408;29;20443;-70
2024/03/18 07:13:29;;;;;;;9.32;5.55;;;;;;;10.55;53.28;101131.88;4930334;29;20058;-71
2024/03/18 07:15:59;;;;;;;9.07;5.95;;;;;;;10.58;53.39;101142.53;4914147;29;20397;-71
2024/03/18 07:18:26;;;;;;;8.38;5.78;;;;;;;10.58;53.35;101139.81;4921864;29;20043;-71
2024/03/18 07:20:55;;;;;;;9.20;6.18;;;;;;;10.58;53.15;101137.06;4919640;29;20045;-70
2024/03/18 07:23:22;;;;;;;8.98;5.63;;;;;;;10.60;53.03;101131.47;4908101;29;20048;-71
2024/03/18 07:25:50;;;;;;;8.18;5.55;;;;;;;10.62;53.55;101136.81;4931704;29;20051;-70
2024/03/18 07:28:17;;;;;;;8.57;5.90;;;;;;;10.62;53.10;101125.88;4927391;29;20419;-70
2024/03/18 07:30:48;;;;;;;8.07;4.90;;;;;;;10.65;53.78;101120.16;4929490;29;20043;-70
2024/03/18 07:33:16;;;;;;;8.50;5.60;;;;;;;10.64;53.14;101121.16;4923381;29;20274;-70
2024/03/18 07:35:43;;;;;;;8.07;5.22;;;;;;;10.63;53.72;101113.94;4928936;29;20039;-70
2024/03/18 07:38:10;;;;;;;6.85;5.10;;;;;;;10.64;53.32;101116.56;4921885;29;20054;-70
2024/03/18 07:40:38;;;;;;;8.27;5.63;;;;;;;10.66;53.15;101116.41;4928144;29;20043;-70
2024/03/18 07:43:11;;;;;;;7.68;5.68;;;;;;;10.65;53.49;101118.25;4931881;29;20046;-70
2024/03/18 07:45:39;;;;;;;8.55;5.80;;;;;;;10.66;53.42;101116.41;4914989;29;20546;-71
2024/03/18 07:48:07;;;;;;;7.40;5.25;;;;;;;10.67;53.22;101121.75;4925059;29;20103;-71
2024/03/18 07:50:36;;;;;;;9.10;5.70;;;;;;;10.69;53.66;101114.28;4923364;29;20040;-70
2024/03/18 07:53:04;;;;;;;8.90;5.90;;;;;;;10.69;53.16;101110.69;4923393;29;20048;-71
2024/03/18 07:55:31;;;;;;;8.23;5.97;;;;;;;10.68;53.56;101112.53;4957936;23;20058;-70
2024/03/18 07:57:58;;;;;;;8.57;5.55;;;;;;;10.71;53.12;101116.91;4944989;28;20068;-70
2024/03/18 08:00:25;;;;;;;9.23;5.78;;;;;;;10.71;53.23;101111.44;4936726;29;20043;-70
2024/03/18 08:02:52;;;;;;;7.70;5.22;;;;;;;10.72;53.22;101116.78;4945588;28;20031;-70
2024/03/18 08:05:19;;;;;;;7.90;5.50;;;;;;;10.74;53.39;101122.09;4921898;29;20044;-70
2024/03/18 08:07:48;;;;;;;7.55;5.05;;;;;;;10.76;53.54;101117.38;4920283;28;20042;-70
2024/03/18 08:10:14;;;;;;;8.07;5.05;;;;;;;10.75;53.31;101112.88;4934134;29;20043;-70
2024/03/18 08:12:41;;;;;;;7.80;5.47;;;;;;;10.77;53.53;101122.72;4936589;28;20058;-70
2024/03/18 08:15:10;;;;;;;7.13;5.15;;;;;;;10.79;53.33;101126.22;4936800;29;20047;-70
2024/03/18 08:17:37;;;;;;;8.35;5.85;;;;;;;10.79;53.46;101128.94;4930986;29;20119;-71
2024/03/18 08:20:05;;;;;;;8.40;5.43;;;;;;;10.80;53.89;101125.22;4919122;28;20051;-71
2024/03/18 08:22:32;;;;;;;7.65;5.47;;;;;;;10.82;53.70;101127.78;4919045;29;20043;-72
2024/03/18 08:25:00;;;;;;;7.35;5.35;;;;;;;10.85;53.98;101133.03;4920837;28;20054;-70
2024/03/18 08:27:32;;;;;;;7.95;5.43;;;;;;;10.85;53.69;101131.16;4940212;28;20051;-72
2024/03/18 08:29:59;;;;;;;8.38;5.95;;;;;;;10.87;54.18;101125.56;4926476;28;21162;-72
2024/03/18 08:32:26;;;;;;;10.07;6.03;;;;;;;10.89;53.58;101131.78;4939234;28;20035;-72
2024/03/18 08:34:53;;;;;;;8.63;5.75;;;;;;;10.91;54.17;101138.84;4934867;28;20107;-72
2024/03/18 08:37:21;;;;;;;7.38;5.65;;;;;;;10.93;53.78;101138.72;4942614;28;20035;-72
2024/03/18 08:39:48;;;;;;;9.27;6.35;;;;;;;10.95;54.10;101126.66;4935508;28;20051;-72
2024/03/18 08:42:16;;;;;;;7.90;5.93;;;;;;;11.00;54.20;101126.25;4938062;28;20101;-72
2024/03/18 08:44:43;;;;;;;7.53;5.90;;;;;;;11.01;53.73;101129.84;4936674;28;20403;-71
2024/03/18 08:47:11;;;;;;;8.70;5.88;;;;;;;11.03;54.13;101127.84;4939068;28;20055;-72
2024/03/18 08:49:38;;;;;;;8.07;5.60;;;;;;;11.06;54.10;101130.34;4934085;29;20044;-71
2024/03/18 08:52:05;;;;;;;8.32;5.40;;;;;;;11.08;53.90;101131.94;4938494;28;20047;-71
2024/03/18 08:54:33;;;;;;;9.35;6.07;;;;;;;11.11;54.18;101131.69;4941984;28;20055;-71
2024/03/18 08:57:00;;;;;;;9.13;6.55;;;;;;;11.13;54.37;101132.44;4941084;28;20050;-72
2024/03/18 08:59:29;;;;;;;9.35;6.57;;;;;;;11.18;54.56;101127.41;4920792;29;20054;-72
2024/03/18 09:01:56;;;;;;;10.80;6.38;;;;;;;11.21;54.34;101118.06;4945720;28;20039;-71
2024/03/18 09:04:24;;;;;;;9.02;5.75;;;;;;;11.23;54.18;101127.88;4940708;28;20070;-71
2024/03/18 09:06:51;;;;;;;9.10;6.05;;;;;;;11.27;54.55;101129.38;4939152;28;20043;-71
2024/03/18 09:09:19;;;;;;;8.38;5.68;;;;;;;11.30;54.53;101131.84;4923623;29;20457;-72
2024/03/18 09:11:46;;;;;;;9.68;6.78;;;;;;;11.34;54.19;101133.31;4943777;28;20419;-71
2024/03/18 09:14:13;;;;;;;8.93;6.15;;;;;;;11.36;54.00;101131.31;4927237;28;20074;-71
2024/03/18 09:16:41;;;;;;;9.13;6.45;;;;;;;11.42;54.56;101129.91;4938266;28;20141;-72
2024/03/18 09:19:08;;;;;;;10.38;6.35;;;;;;;11.44;54.39;101130.63;4934613;28;20104;-71
2024/03/18 09:21:35;;;;;;;8.30;5.55;;;;;;;11.48;54.56;101132.09;4922195;29;20078;-71
2024/03/18 09:24:03;;;;;;;8.70;6.07;;;;;;;11.52;54.51;101133.59;4944888;28;20062;-71
2024/03/18 09:26:30;;;;;;;8.80;6.03;;;;;;;11.57;54.20;101130.41;4925912;28;20043;-71
2024/03/18 09:28:57;;;;;;;8.75;6.32;;;;;;;11.62;54.20;101139.16;4936456;28;20058;-71
2024/03/18 09:31:24;;;;;;;9.82;6.82;;;;;;;11.65;54.38;101134.25;4952190;28;20411;-71
2024/03/18 09:33:54;;;;;;;9.48;7.22;;;;;;;11.72;54.42;101140.94;4920072;28;20059;-71
2024/03/18 09:36:21;;;;;;;8.88;6.53;;;;;;;11.74;54.43;101141.69;4942369;29;20570;-72
2024/03/18 09:38:49;;;;;;;8.98;6.43;;;;;;;11.80;54.48;101145.75;4935302;28;20048;-71
2024/03/18 09:41:19;;;;;;;8.00;5.90;;;;;;;11.89;54.80;101141.31;4937041;28;20406;-71
2024/03/18 09:43:47;;;;;;;8.65;5.97;;;;;;;11.95;54.90;101143.53;4923871;28;20051;-71
2024/03/18 09:46:16;;;;;;;9.27;5.40;;;;;;;12.01;54.44;101148.47;4921524;29;20036;-71
2024/03/18 09:48:43;;;;;;;7.43;4.93;;;;;;;12.05;54.18;101142.56;4933200;28;20047;-71
2024/03/18 09:51:16;;;;;;;9.15;5.45;;;;;;;12.14;54.79;101146.34;4934938;29;20062;-71
2024/03/18 09:53:44;;;;;;;7.13;4.72;;;;;;;12.18;54.78;101144.22;4923469;28;20054;-71
2024/03/18 09:56:14;;;;;;;7.65;4.72;;;;;;;12.27;54.54;101144.28;4924811;28;20124;-71
2024/03/18 09:58:41;;;;;;;7.10;4.85;;;;;;;12.32;54.33;101152.06;4924506;29;20051;-72
2024/03/18 10:01:11;;;;;;;6.85;4.20;;;;;;;12.41;54.42;101151.25;4923179;29;20043;-71
2024/03/18 10:03:40;;;;;;;5.68;3.95;;;;;;;12.47;54.17;101162.53;4939397;29;20047;-72
2024/03/18 10:06:08;;;;;;;5.35;3.35;;;;;;;12.54;53.58;101162.00;4939506;29;20039;-72
2024/03/18 10:08:39;;;;;;;5.65;3.60;;;;;;;12.62;53.44;101153.97;4940173;29;20126;-72
2024/03/18 10:11:06;;;;;;;4.70;3.15;;;;;;;12.66;53.94;101158.13;4920565;29;20040;-72
2024/03/18 10:13:33;;;;;;;5.28;3.00;;;;;;;12.71;53.29;101161.31;4928110;29;20510;-72
2024/03/18 10:16:01;;;;;;;5.32;3.47;;;;;;;12.77;53.16;101155.28;4920785;29;20044;-72
2024/03/18 10:18:28;;;;;;;5.38;2.90;;;;;;;12.81;53.17;101163.09;4903080;29;20594;-72
2024/03/18 10:21:00;;;;;;;4.47;2.75;;;;;;;12.90;52.47;101157.75;4920404;29;20408;-72
2024/03/18 10:23:27;;;;;;;5.07;2.53;;;;;;;12.90;52.76;101155.88;4933357;28;20048;-71
2024/03/18 10:25:56;;;;;;;4.55;2.00;;;;;;;12.98;52.42;101152.41;4942458;29;20284;-72
2024/03/18 10:28:23;;;;;;;3.30;1.83;;;;;;;13.02;52.66;101163.00;4919896;29;20193;-71
2024/03/18 10:30:50;;;;;;;3.33;1.75;;;;;;;13.06;51.96;101155.31;4928903;29;20062;-72
2024/03/18 10:33:18;;;;;;;3.47;1.38;;;;;;;13.11;52.37;101153.03;4939116;29;20098;-72
2024/03/18 10:35:49;;;;;;;6.68;1.40;;;;;;;13.15;51.15;101147.06;4938867;29;20027;-72
2024/03/18 10:38:23;;;;;;;2.53;1.23;;;;;;;13.19;51.37;101154.03;4939996;29;20039;-72
2024/03/18 10:40:53;;;;;;;4.13;1.40;;;;;;;13.23;50.86;101155.47;4939844;29;20047;-72
2024/03/18 10:43:31;;;;;;;3.22;1.23;;;;;;;13.28;51.21;101159.69;4923880;29;20566;-72
2024/03/18 10:45:59;;;;;;;2.90;1.20;;;;;;;13.29;51.39;101156.75;4923448;29;20043;-72
2024/03/18 10:48:28;;;;;;;4.65;1.48;;;;;;;13.35;51.60;101156.22;4925849;28;20038;-71
2024/03/18 10:50:55;;;;;;;3.05;1.50;;;;;;;13.39;51.43;101159.50;4928331;29;20175;-72
2024/03/18 10:53:25;;;;;;;3.05;1.55;;;;;;;13.44;50.97;101165.47;4939086;29;20047;-72
2024/03/18 10:55:54;;;;;;;4.68;1.63;;;;;;;13.49;50.30;101163.13;4938651;29;20098;-72
2024/03/18 10:58:24;;;;;;;3.20;1.40;;;;;;;13.52;50.11;101169.22;4937628;29;20043;-72
2024/03/18 11:00:52;;;;;;;3.70;1.67;;;;;;;13.55;49.57;101170.78;4929224;29;20460;-71
2024/03/18 11:03:20;;;;;;;3.35;1.70;;;;;;;13.58;49.34;101176.91;4918354;29;20051;-72
2024/03/18 11:05:50;;;;;;;4.53;2.13;;;;;;;13.59;49.64;101175.91;4952189;28;20118;-72
2024/03/18 11:08:19;;;;;;;4.45;1.70;;;;;;;13.61;49.43;101176.59;4940552;28;20051;-71
2024/03/18 11:10:47;;;;;;;4.25;2.00;;;;;;;13.62;49.36;101181.09;4947705;29;20050;-73
2024/03/18 11:13:18;;;;;;;2.97;1.75;;;;;;;13.64;49.11;101178.19;4939369;29;20051;-72
2024/03/18 11:15:55;;;;;;;4.68;2.25;;;;;;;13.65;48.18;101168.94;4938838;28;20043;-65
2024/03/18 11:18:26;;;;;;;3.33;2.03;;;;;;;13.65;49.11;101179.06;4926803;28;20414;-65
2024/03/18 11:20:55;;;;;;;4.35;1.90;;;;;;;13.66;49.01;101176.19;4941323;28;20043;-64
2024/03/18 11:23:24;;;;;;;3.75;1.92;;;;;;;13.68;49.29;101178.78;4938235;29;20047;-65
2024/03/18 11:25:55;;;;;;;4.05;2.22;;;;;;;13.70;48.43;101187.72;4938595;29;20059;-72
2024/03/18 11:28:33;;;;;;;4.60;2.30;;;;;;;13.72;48.61;101185.72;4948579;28;20051;-71